sensor_id;sensor_type;location;lat;lon;timestamp;pressure;altitude;pressure_sealevel;temperature;humidity
11268;BME280;72685;47.474;9.416;2023-10-19T00:00:13;94190.84;;;9.07;100.00
11268;BME280;72685;47.474;9.416;2023-10-19T00:02:50;94192.97;;;9.14;100.00
11268;BME280;72685;47.474;9.416;2023-10-19T00:05:17;94189.41;;;9.10;100.00
11268;BME280;72685;47.474;9.416;2023-10-19T00:07:42;94197.41;;;9.10;100.00
11268;BME280;72685;47.474;9.416;2023-10-19T00:10:08;94187.22;;;9.12;100.00
11268;BME280;72685;47.474;9.416;2023-10-19T00:12:34;94181.53;;;9.13;100.00
11268;BME280;72685;47.474;9.416;2023-10-19T00:15:00;94191.41;;;9.13;100.00
11268;BME280;72685;47.474;9.416;2023-10-19T00:17:29;94182.66;;;9.12;100.00
11268;BME280;72685;47.474;9.416;2023-10-19T00:19:55;94203.97;;;9.12;100.00
11268;BME280;72685;47.474;9.416;2023-10-19T00:22:43;94181.22;;;9.15;100.00
11268;BME280;72685;47.474;9.416;2023-10-19T00:25:09;94188.88;;;9.16;100.00
11268;BME280;72685;47.474;9.416;2023-10-19T00:27:39;94183.53;;;9.16;100.00
11268;BME280;72685;47.474;9.416;2023-10-19T00:30:05;94177.34;;;9.12;100.00
11268;BME280;72685;47.474;9.416;2023-10-19T00:32:32;94180.56;;;9.18;100.00
11268;BME280;72685;47.474;9.416;2023-10-19T00:34:58;94171.66;;;9.14;100.00
11268;BME280;72685;47.474;9.416;2023-10-19T00:37:30;94164.88;;;9.16;100.00
11268;BME280;72685;47.474;9.416;2023-10-19T00:39:57;94159.25;;;9.18;100.00
11268;BME280;72685;47.474;9.416;2023-10-19T00:42:39;94151.38;;;9.21;100.00
11268;BME280;72685;47.474;9.416;2023-10-19T00:45:11;94149.16;;;9.23;100.00
11268;BME280;72685;47.474;9.416;2023-10-19T00:47:38;94138.06;;;9.21;100.00
11268;BME280;72685;47.474;9.416;2023-10-19T00:50:06;94143.38;;;9.21;100.00
11268;BME280;72685;47.474;9.416;2023-10-19T00:52:37;94136.16;;;9.22;100.00
11268;BME280;72685;47.474;9.416;2023-10-19T00:55:10;94134.84;;;9.28;100.00
11268;BME280;72685;47.474;9.416;2023-10-19T00:57:39;94137.94;;;9.30;100.00
11268;BME280;72685;47.474;9.416;2023-10-19T01:00:08;94122.53;;;9.35;100.00
11268;BME280;72685;47.474;9.416;2023-10-19T01:02:38;94109.31;;;9.39;100.00
11268;BME280;72685;47.474;9.416;2023-10-19T01:05:12;94102.09;;;9.39;100.00
11268;BME280;72685;47.474;9.416;2023-10-19T01:07:40;94096.88;;;9.43;100.00
11268;BME280;72685;47.474;9.416;2023-10-19T01:10:07;94102.31;;;9.34;100.00
11268;BME280;72685;47.474;9.416;2023-10-19T01:12:53;94101.19;;;9.35;100.00
11268;BME280;72685;47.474;9.416;2023-10-19T01:15:21;94095.88;;;9.35;100.00
11268;BME280;72685;47.474;9.416;2023-10-19T01:17:54;94092.75;;;9.33;100.00
11268;BME280;72685;47.474;9.416;2023-10-19T01:20:30;94094.75;;;9.36;100.00
11268;BME280;72685;47.474;9.416;2023-10-19T01:23:07;94090.53;;;9.35;100.00
11268;BME280;72685;47.474;9.416;2023-10-19T01:25:42;94101.84;;;9.32;100.00
11268;BME280;72685;47.474;9.416;2023-10-19T01:28:15;94098.09;;;9.33;100.00
11268;BME280;72685;47.474;9.416;2023-10-19T01:30:44;94103.41;;;9.33;100.00
11268;BME280;72685;47.474;9.416;2023-10-19T01:33:10;94091.53;;;9.31;100.00
11268;BME280;72685;47.474;9.416;2023-10-19T01:35:41;94099.72;;;9.26;100.00
11268;BME280;72685;47.474;9.416;2023-10-19T01:38:27;94102.28;;;9.22;100.00
11268;BME280;72685;47.474;9.416;2023-10-19T01:40:56;94098.84;;;9.22;100.00
11268;BME280;72685;47.474;9.416;2023-10-19T01:43:27;94089.72;;;9.23;100.00
11268;BME280;72685;47.474;9.416;2023-10-19T01:45:56;94083.63;;;9.22;100.00
11268;BME280;72685;47.474;9.416;2023-10-19T01:48:22;94090.06;;;9.21;100.00
11268;BME280;72685;47.474;9.416;2023-10-19T01:51:02;94083.97;;;9.21;100.00
11268;BME280;72685;47.474;9.416;2023-10-19T01:53:32;94080.88;;;9.19;100.00
11268;BME280;72685;47.474;9.416;2023-10-19T01:55:58;94073.06;;;9.14;100.00
11268;BME280;72685;47.474;9.416;2023-10-19T01:58:24;94076.72;;;9.09;100.00
11268;BME280;72685;47.474;9.416;2023-10-19T02:00:51;94071.28;;;9.06;100.00
11268;BME280;72685;47.474;9.416;2023-10-19T02:03:21;94057.50;;;9.03;100.00
11268;BME280;72685;47.474;9.416;2023-10-19T02:05:48;94050.94;;;9.01;100.00
11268;BME280;72685;47.474;9.416;2023-10-19T02:08:15;94054.50;;;9.05;100.00
11268;BME280;72685;47.474;9.416;2023-10-19T02:10:48;94051.38;;;9.03;100.00
11268;BME280;72685;47.474;9.416;2023-10-19T02:13:14;94052.63;;;9.06;100.00
11268;BME280;72685;47.474;9.416;2023-10-19T02:15:42;94048.72;;;9.03;100.00
11268;BME280;72685;47.474;9.416;2023-10-19T02:18:08;94048.19;;;9.10;100.00
11268;BME280;72685;47.474;9.416;2023-10-19T02:20:34;94052.84;;;9.13;100.00
11268;BME280;72685;47.474;9.416;2023-10-19T02:22:59;94048.84;;;9.07;100.00
11268;BME280;72685;47.474;9.416;2023-10-19T02:25:29;94034.66;;;9.15;100.00
11268;BME280;72685;47.474;9.416;2023-10-19T02:27:59;94048.41;;;9.17;100.00
11268;BME280;72685;47.474;9.416;2023-10-19T02:30:24;94040.31;;;9.13;100.00
11268;BME280;72685;47.474;9.416;2023-10-19T02:32:50;94041.31;;;9.09;100.00
11268;BME280;72685;47.474;9.416;2023-10-19T02:35:16;94045.84;;;9.08;100.00
11268;BME280;72685;47.474;9.416;2023-10-19T02:37:41;94039.44;;;9.09;100.00
11268;BME280;72685;47.474;9.416;2023-10-19T02:40:07;94032.97;;;9.10;100.00
11268;BME280;72685;47.474;9.416;2023-10-19T02:42:48;94038.19;;;9.07;100.00
11268;BME280;72685;47.474;9.416;2023-10-19T02:45:15;94027.88;;;9.05;100.00
11268;BME280;72685;47.474;9.416;2023-10-19T02:47:43;94025.53;;;9.03;100.00
11268;BME280;72685;47.474;9.416;2023-10-19T02:50:08;94025.88;;;9.02;100.00
11268;BME280;72685;47.474;9.416;2023-10-19T02:52:36;94022.31;;;8.98;100.00
11268;BME280;72685;47.474;9.416;2023-10-19T02:55:02;94018.72;;;8.94;100.00
11268;BME280;72685;47.474;9.416;2023-10-19T02:57:29;94013.41;;;8.94;100.00
11268;BME280;72685;47.474;9.416;2023-10-19T02:59:56;94009.75;;;8.98;100.00
11268;BME280;72685;47.474;9.416;2023-10-19T03:02:24;94011.75;;;9.01;100.00
11268;BME280;72685;47.474;9.416;2023-10-19T03:04:54;93996.56;;;9.02;100.00
11268;BME280;72685;47.474;9.416;2023-10-19T03:07:20;93991.34;;;9.06;100.00
11268;BME280;72685;47.474;9.416;2023-10-19T03:09:45;93986.56;;;8.99;100.00
11268;BME280;72685;47.474;9.416;2023-10-19T03:12:14;93983.31;;;8.93;100.00
11268;BME280;72685;47.474;9.416;2023-10-19T03:14:40;93995.41;;;8.91;100.00
11268;BME280;72685;47.474;9.416;2023-10-19T03:17:10;93989.00;;;8.92;100.00
11268;BME280;72685;47.474;9.416;2023-10-19T03:19:35;93983.78;;;8.95;100.00
11268;BME280;72685;47.474;9.416;2023-10-19T03:22:01;93981.34;;;9.02;100.00
11268;BME280;72685;47.474;9.416;2023-10-19T03:24:26;93979.38;;;9.12;100.00
11268;BME280;72685;47.474;9.416;2023-10-19T03:27:12;93979.91;;;9.17;100.00
11268;BME280;72685;47.474;9.416;2023-10-19T03:29:48;93979.91;;;9.17;100.00
11268;BME280;72685;47.474;9.416;2023-10-19T03:32:19;93974.34;;;9.22;100.00
11268;BME280;72685;47.474;9.416;2023-10-19T03:34:47;93971.47;;;9.27;100.00
11268;BME280;72685;47.474;9.416;2023-10-19T03:37:14;93978.56;;;9.35;100.00
11268;BME280;72685;47.474;9.416;2023-10-19T03:39:41;93985.16;;;9.38;100.00
11268;BME280;72685;47.474;9.416;2023-10-19T03:42:06;93981.34;;;9.39;100.00
11268;BME280;72685;47.474;9.416;2023-10-19T03:44:35;93979.25;;;9.44;100.00
11268;BME280;72685;47.474;9.416;2023-10-19T03:47:12;93979.69;;;9.46;100.00
11268;BME280;72685;47.474;9.416;2023-10-19T03:49:39;93972.13;;;9.48;100.00
11268;BME280;72685;47.474;9.416;2023-10-19T03:52:06;93971.03;;;9.49;100.00
11268;BME280;72685;47.474;9.416;2023-10-19T03:54:34;93979.03;;;9.49;100.00
11268;BME280;72685;47.474;9.416;2023-10-19T03:57:12;93980.13;;;9.48;100.00
11268;BME280;72685;47.474;9.416;2023-10-19T03:59:41;93973.94;;;9.44;100.00
11268;BME280;72685;47.474;9.416;2023-10-19T04:02:10;93967.03;;;9.43;100.00
11268;BME280;72685;47.474;9.416;2023-10-19T04:04:39;93974.13;;;9.39;100.00
11268;BME280;72685;47.474;9.416;2023-10-19T04:07:12;93982.47;;;9.38;100.00
11268;BME280;72685;47.474;9.416;2023-10-19T04:09:48;93975.91;;;9.35;100.00
11268;BME280;72685;47.474;9.416;2023-10-19T04:12:32;93976.56;;;9.32;100.00
11268;BME280;72685;47.474;9.416;2023-10-19T04:15:02;93984.69;;;9.24;100.00
11268;BME280;72685;47.474;9.416;2023-10-19T04:17:43;93983.00;;;9.19;100.00
11268;BME280;72685;47.474;9.416;2023-10-19T04:20:11;93974.03;;;9.24;100.00
11268;BME280;72685;47.474;9.416;2023-10-19T04:22:59;93969.91;;;9.26;100.00
11268;BME280;72685;47.474;9.416;2023-10-19T04:25:31;93960.16;;;9.30;100.00
11268;BME280;72685;47.474;9.416;2023-10-19T04:27:57;93948.38;;;9.31;100.00
11268;BME280;72685;47.474;9.416;2023-10-19T04:30:22;93959.47;;;9.33;100.00
11268;BME280;72685;47.474;9.416;2023-10-19T04:32:49;93952.50;;;9.41;100.00
11268;BME280;72685;47.474;9.416;2023-10-19T04:35:15;93943.81;;;9.44;100.00
11268;BME280;72685;47.474;9.416;2023-10-19T04:37:51;93946.59;;;9.47;100.00
11268;BME280;72685;47.474;9.416;2023-10-19T04:40:21;93933.44;;;9.54;100.00
11268;BME280;72685;47.474;9.416;2023-10-19T04:42:50;93930.78;;;9.54;100.00
11268;BME280;72685;47.474;9.416;2023-10-19T04:45:15;93925.44;;;9.54;100.00
11268;BME280;72685;47.474;9.416;2023-10-19T04:47:40;93922.88;;;9.58;100.00
11268;BME280;72685;47.474;9.416;2023-10-19T04:50:06;93921.44;;;9.61;100.00
11268;BME280;72685;47.474;9.416;2023-10-19T04:52:32;93926.97;;;9.68;100.00
11268;BME280;72685;47.474;9.416;2023-10-19T04:54:58;93914.47;;;9.56;100.00
11268;BME280;72685;47.474;9.416;2023-10-19T04:57:24;93913.72;;;9.43;100.00
11268;BME280;72685;47.474;9.416;2023-10-19T04:59:51;93912.50;;;9.41;100.00
11268;BME280;72685;47.474;9.416;2023-10-19T05:02:16;93911.94;;;9.47;100.00
11268;BME280;72685;47.474;9.416;2023-10-19T05:04:42;93918.91;;;9.52;100.00
11268;BME280;72685;47.474;9.416;2023-10-19T05:07:09;93912.13;;;9.54;100.00
11268;BME280;72685;47.474;9.416;2023-10-19T05:09:37;93911.13;;;9.59;100.00
11268;BME280;72685;47.474;9.416;2023-10-19T05:12:05;93904.31;;;9.62;100.00
11268;BME280;72685;47.474;9.416;2023-10-19T05:14:37;93914.31;;;9.65;100.00
11268;BME280;72685;47.474;9.416;2023-10-19T05:17:03;93912.53;;;9.69;100.00
11268;BME280;72685;47.474;9.416;2023-10-19T05:19:32;93906.84;;;9.70;100.00
11268;BME280;72685;47.474;9.416;2023-10-19T05:21:59;93899.75;;;9.74;100.00
11268;BME280;72685;47.474;9.416;2023-10-19T05:24:25;93888.63;;;9.72;100.00
11268;BME280;72685;47.474;9.416;2023-10-19T05:26:51;93882.53;;;9.72;100.00
11268;BME280;72685;47.474;9.416;2023-10-19T05:29:19;93880.63;;;9.72;100.00
11268;BME280;72685;47.474;9.416;2023-10-19T05:31:44;93887.59;;;9.77;100.00
11268;BME280;72685;47.474;9.416;2023-10-19T05:34:10;93897.53;;;9.76;100.00
11268;BME280;72685;47.474;9.416;2023-10-19T05:36:35;93900.53;;;9.75;100.00
11268;BME280;72685;47.474;9.416;2023-10-19T05:39:01;93900.84;;;9.73;100.00
11268;BME280;72685;47.474;9.416;2023-10-19T05:41:26;93894.41;;;9.74;100.00
11268;BME280;72685;47.474;9.416;2023-10-19T05:43:52;93898.97;;;9.74;100.00
11268;BME280;72685;47.474;9.416;2023-10-19T05:46:18;93900.41;;;9.71;100.00
11268;BME280;72685;47.474;9.416;2023-10-19T05:48:47;93895.88;;;9.72;100.00
11268;BME280;72685;47.474;9.416;2023-10-19T05:51:14;93885.63;;;9.74;100.00
11268;BME280;72685;47.474;9.416;2023-10-19T05:53:40;93883.31;;;9.72;100.00
11268;BME280;72685;47.474;9.416;2023-10-19T05:56:07;93884.84;;;9.73;100.00
11268;BME280;72685;47.474;9.416;2023-10-19T05:58:32;93873.94;;;9.78;100.00
11268;BME280;72685;47.474;9.416;2023-10-19T06:00:58;93883.16;;;9.81;100.00
11268;BME280;72685;47.474;9.416;2023-10-19T06:03:24;93879.81;;;9.84;100.00
11268;BME280;72685;47.474;9.416;2023-10-19T06:05:49;93880.59;;;9.84;100.00
11268;BME280;72685;47.474;9.416;2023-10-19T06:08:14;93875.34;;;9.88;100.00
11268;BME280;72685;47.474;9.416;2023-10-19T06:10:40;93875.00;;;9.89;100.00
11268;BME280;72685;47.474;9.416;2023-10-19T06:13:05;93880.78;;;9.91;100.00
11268;BME280;72685;47.474;9.416;2023-10-19T06:15:35;93877.88;;;9.96;100.00
11268;BME280;72685;47.474;9.416;2023-10-19T06:18:00;93881.00;;;9.98;100.00
11268;BME280;72685;47.474;9.416;2023-10-19T06:20:26;93884.09;;;10.00;100.00
11268;BME280;72685;47.474;9.416;2023-10-19T06:22:56;93884.50;;;10.02;100.00
11268;BME280;72685;47.474;9.416;2023-10-19T06:25:26;93878.50;;;10.05;100.00
11268;BME280;72685;47.474;9.416;2023-10-19T06:27:52;93876.97;;;10.04;100.00
11268;BME280;72685;47.474;9.416;2023-10-19T06:30:19;93870.75;;;10.00;100.00
11268;BME280;72685;47.474;9.416;2023-10-19T06:32:48;93874.63;;;10.03;100.00
11268;BME280;72685;47.474;9.416;2023-10-19T06:35:16;93876.28;;;10.07;100.00
11268;BME280;72685;47.474;9.416;2023-10-19T06:37:42;93871.94;;;10.03;100.00
11268;BME280;72685;47.474;9.416;2023-10-19T06:40:09;93868.59;;;10.06;100.00
11268;BME280;72685;47.474;9.416;2023-10-19T06:42:39;93866.03;;;10.09;100.00
11268;BME280;72685;47.474;9.416;2023-10-19T06:45:05;93870.38;;;10.14;100.00
11268;BME280;72685;47.474;9.416;2023-10-19T06:47:32;93868.91;;;10.17;100.00
11268;BME280;72685;47.474;9.416;2023-10-19T06:50:03;93876.16;;;10.16;100.00
11268;BME280;72685;47.474;9.416;2023-10-19T06:52:30;93875.03;;;10.17;100.00
11268;BME280;72685;47.474;9.416;2023-10-19T06:54:57;93862.47;;;10.18;100.00
11268;BME280;72685;47.474;9.416;2023-10-19T06:57:23;93858.66;;;10.19;100.00
11268;BME280;72685;47.474;9.416;2023-10-19T06:59:48;93863.31;;;10.22;100.00
11268;BME280;72685;47.474;9.416;2023-10-19T07:02:13;93860.75;;;10.25;100.00
11268;BME280;72685;47.474;9.416;2023-10-19T07:04:39;93848.59;;;10.28;100.00
11268;BME280;72685;47.474;9.416;2023-10-19T07:07:04;93851.03;;;10.33;100.00
11268;BME280;72685;47.474;9.416;2023-10-19T07:09:30;93857.25;;;10.37;100.00
11268;BME280;72685;47.474;9.416;2023-10-19T07:11:55;93851.63;;;10.42;100.00
11268;BME280;72685;47.474;9.416;2023-10-19T07:14:22;93846.81;;;10.47;100.00
11268;BME280;72685;47.474;9.416;2023-10-19T07:16:49;93851.38;;;10.47;100.00
11268;BME280;72685;47.474;9.416;2023-10-19T07:19:15;93844.22;;;10.51;100.00
11268;BME280;72685;47.474;9.416;2023-10-19T07:21:41;93839.31;;;10.53;100.00
11268;BME280;72685;47.474;9.416;2023-10-19T07:24:08;93841.47;;;10.63;100.00
11268;BME280;72685;47.474;9.416;2023-10-19T07:26:36;93833.28;;;10.72;100.00
11268;BME280;72685;47.474;9.416;2023-10-19T07:29:16;93839.91;;;10.78;100.00
11268;BME280;72685;47.474;9.416;2023-10-19T07:31:42;93850.78;;;10.85;100.00
11268;BME280;72685;47.474;9.416;2023-10-19T07:34:07;93847.84;;;10.90;100.00
11268;BME280;72685;47.474;9.416;2023-10-19T07:36:33;93844.88;;;10.95;100.00
11268;BME280;72685;47.474;9.416;2023-10-19T07:39:02;93844.75;;;10.88;100.00
11268;BME280;72685;47.474;9.416;2023-10-19T07:41:27;93850.16;;;10.91;100.00
11268;BME280;72685;47.474;9.416;2023-10-19T07:43:58;93843.78;;;10.96;100.00
11268;BME280;72685;47.474;9.416;2023-10-19T07:46:24;93838.16;;;11.01;100.00
11268;BME280;72685;47.474;9.416;2023-10-19T07:48:49;93839.28;;;11.00;100.00
11268;BME280;72685;47.474;9.416;2023-10-19T07:51:15;93849.63;;;11.01;100.00
11268;BME280;72685;47.474;9.416;2023-10-19T07:53:41;93848.16;;;11.04;100.00
11268;BME280;72685;47.474;9.416;2023-10-19T07:56:07;93846.25;;;11.04;100.00
11268;BME280;72685;47.474;9.416;2023-10-19T07:58:33;93844.34;;;11.05;100.00
11268;BME280;72685;47.474;9.416;2023-10-19T08:00:59;93834.81;;;11.04;100.00
11268;BME280;72685;47.474;9.416;2023-10-19T08:03:24;93824.63;;;11.09;100.00
11268;BME280;72685;47.474;9.416;2023-10-19T08:05:50;93829.25;;;11.12;100.00
11268;BME280;72685;47.474;9.416;2023-10-19T08:08:15;93831.31;;;11.19;100.00
11268;BME280;72685;47.474;9.416;2023-10-19T08:10:41;93824.97;;;11.27;100.00
11268;BME280;72685;47.474;9.416;2023-10-19T08:13:06;93824.34;;;11.34;100.00
11268;BME280;72685;47.474;9.416;2023-10-19T08:15:32;93820.72;;;11.42;100.00
11268;BME280;72685;47.474;9.416;2023-10-19T08:17:58;93817.06;;;11.50;100.00
11268;BME280;72685;47.474;9.416;2023-10-19T08:20:23;93812.50;;;11.50;100.00
11268;BME280;72685;47.474;9.416;2023-10-19T08:22:54;93812.34;;;11.62;100.00
11268;BME280;72685;47.474;9.416;2023-10-19T08:25:22;93809.53;;;11.94;100.00
11268;BME280;72685;47.474;9.416;2023-10-19T08:27:48;93808.72;;;12.12;100.00
11268;BME280;72685;47.474;9.416;2023-10-19T08:30:20;93804.75;;;12.26;100.00
11268;BME280;72685;47.474;9.416;2023-10-19T08:32:46;93798.69;;;12.29;100.00
11268;BME280;72685;47.474;9.416;2023-10-19T08:35:15;93799.75;;;12.24;100.00
11268;BME280;72685;47.474;9.416;2023-10-19T08:37:43;93793.38;;;12.32;100.00
11268;BME280;72685;47.474;9.416;2023-10-19T08:40:11;93794.16;;;12.33;100.00
11268;BME280;72685;47.474;9.416;2023-10-19T08:42:41;93802.97;;;12.33;100.00
11268;BME280;72685;47.474;9.416;2023-10-19T08:45:08;93803.94;;;12.44;100.00
11268;BME280;72685;47.474;9.416;2023-10-19T08:47:36;93797.25;;;12.57;100.00
11268;BME280;72685;47.474;9.416;2023-10-19T08:50:03;93798.94;;;12.43;100.00
11268;BME280;72685;47.474;9.416;2023-10-19T08:52:30;93806.25;;;12.23;100.00
11268;BME280;72685;47.474;9.416;2023-10-19T08:54:57;93789.34;;;12.19;100.00
11268;BME280;72685;47.474;9.416;2023-10-19T08:57:23;93794.81;;;12.26;100.00
11268;BME280;72685;47.474;9.416;2023-10-19T08:59:48;93795.00;;;12.37;100.00
11268;BME280;72685;47.474;9.416;2023-10-19T09:02:14;93795.47;;;12.42;100.00
11268;BME280;72685;47.474;9.416;2023-10-19T09:04:43;93786.53;;;12.57;100.00
11268;BME280;72685;47.474;9.416;2023-10-19T09:07:11;93788.81;;;12.55;100.00
11268;BME280;72685;47.474;9.416;2023-10-19T09:09:36;93790.59;;;12.48;100.00
11268;BME280;72685;47.474;9.416;2023-10-19T09:12:08;93785.72;;;12.53;100.00
11268;BME280;72685;47.474;9.416;2023-10-19T09:14:35;93787.19;;;12.51;100.00
11268;BME280;72685;47.474;9.416;2023-10-19T09:17:02;93783.97;;;12.64;100.00
11268;BME280;72685;47.474;9.416;2023-10-19T09:19:42;93785.69;;;12.76;100.00
11268;BME280;72685;47.474;9.416;2023-10-19T09:22:09;93777.78;;;12.60;100.00
11268;BME280;72685;47.474;9.416;2023-10-19T09:24:50;93780.28;;;12.72;100.00
11268;BME280;72685;47.474;9.416;2023-10-19T09:27:17;93774.19;;;12.76;100.00
11268;BME280;72685;47.474;9.416;2023-10-19T09:29:43;93778.78;;;12.75;100.00
11268;BME280;72685;47.474;9.416;2023-10-19T09:32:08;93772.31;;;12.80;100.00
11268;BME280;72685;47.474;9.416;2023-10-19T09:34:35;93772.38;;;12.83;100.00
11268;BME280;72685;47.474;9.416;2023-10-19T09:37:02;93769.75;;;12.87;100.00
11268;BME280;72685;47.474;9.416;2023-10-19T09:39:29;93770.75;;;13.01;100.00
11268;BME280;72685;47.474;9.416;2023-10-19T09:42:07;93763.94;;;13.07;100.00
11268;BME280;72685;47.474;9.416;2023-10-19T09:44:42;93764.63;;;13.60;100.00
11268;BME280;72685;47.474;9.416;2023-10-19T09:47:13;93760.31;;;13.86;98.26
11268;BME280;72685;47.474;9.416;2023-10-19T09:49:41;93752.47;;;14.10;95.67
11268;BME280;72685;47.474;9.416;2023-10-19T09:52:09;93744.16;;;14.19;93.87
11268;BME280;72685;47.474;9.416;2023-10-19T09:55:00;93741.63;;;13.96;96.31
11268;BME280;72685;47.474;9.416;2023-10-19T09:57:39;93726.34;;;14.04;96.89
11268;BME280;72685;47.474;9.416;2023-10-19T10:00:10;93715.16;;;13.98;98.10
11268;BME280;72685;47.474;9.416;2023-10-19T10:02:42;93726.00;;;14.09;96.76
11268;BME280;72685;47.474;9.416;2023-10-19T10:10:49;93724.59;;;14.66;93.98
11268;BME280;72685;47.474;9.416;2023-10-19T10:15:52;93717.72;;;14.72;93.18
11268;BME280;72685;47.474;9.416;2023-10-19T10:18:18;93728.66;;;14.42;93.99
11268;BME280;72685;47.474;9.416;2023-10-19T10:20:43;93726.28;;;14.37;95.43
11268;BME280;72685;47.474;9.416;2023-10-19T10:23:17;93729.81;;;14.45;93.40
11268;BME280;72685;47.474;9.416;2023-10-19T10:25:45;93721.06;;;14.55;93.48
11268;BME280;72685;47.474;9.416;2023-10-19T10:28:14;93719.34;;;14.91;91.26
11268;BME280;72685;47.474;9.416;2023-10-19T10:31:09;93718.19;;;15.57;89.45
11268;BME280;72685;47.474;9.416;2023-10-19T10:33:45;93711.75;;;15.97;85.17
11268;BME280;72685;47.474;9.416;2023-10-19T10:36:12;93711.69;;;15.72;85.44
11268;BME280;72685;47.474;9.416;2023-10-19T10:38:37;93707.41;;;15.53;87.81
11268;BME280;72685;47.474;9.416;2023-10-19T10:41:03;93709.31;;;15.49;87.78
11268;BME280;72685;47.474;9.416;2023-10-19T10:43:29;93700.91;;;15.68;86.35
11268;BME280;72685;47.474;9.416;2023-10-19T10:46:05;93693.66;;;15.97;84.36
11268;BME280;72685;47.474;9.416;2023-10-19T10:48:30;93699.47;;;16.38;82.61
11268;BME280;72685;47.474;9.416;2023-10-19T10:50:56;93690.59;;;16.80;80.78
11268;BME280;72685;47.474;9.416;2023-10-19T10:53:23;93689.41;;;16.99;79.29
11268;BME280;72685;47.474;9.416;2023-10-19T10:55:50;93688.19;;;17.28;80.25
11268;BME280;72685;47.474;9.416;2023-10-19T10:58:18;93695.03;;;17.50;78.61
11268;BME280;72685;47.474;9.416;2023-10-19T11:00:45;93689.63;;;17.61;76.49
11268;BME280;72685;47.474;9.416;2023-10-19T11:03:16;93682.25;;;17.65;76.93
11268;BME280;72685;47.474;9.416;2023-10-19T11:05:42;93679.19;;;17.59;73.97
11268;BME280;72685;47.474;9.416;2023-10-19T11:08:14;93676.31;;;17.91;74.37
11268;BME280;72685;47.474;9.416;2023-10-19T11:10:46;93674.09;;;17.79;73.80
11268;BME280;72685;47.474;9.416;2023-10-19T11:13:17;93673.47;;;17.39;75.90
11268;BME280;72685;47.474;9.416;2023-10-19T11:15:53;93662.75;;;17.22;75.08
11268;BME280;72685;47.474;9.416;2023-10-19T11:18:41;93659.94;;;17.50;75.45
11268;BME280;72685;47.474;9.416;2023-10-19T11:21:12;93648.97;;;17.82;74.26
11268;BME280;72685;47.474;9.416;2023-10-19T11:23:44;93651.31;;;17.80;74.13
11268;BME280;72685;47.474;9.416;2023-10-19T11:26:14;93643.31;;;18.17;74.26
11268;BME280;72685;47.474;9.416;2023-10-19T11:28:40;93639.34;;;18.32;74.73
11268;BME280;72685;47.474;9.416;2023-10-19T11:31:19;93643.34;;;18.65;73.50
11268;BME280;72685;47.474;9.416;2023-10-19T11:33:46;93639.53;;;18.59;72.10
11268;BME280;72685;47.474;9.416;2023-10-19T11:36:15;93645.97;;;18.24;72.18
11268;BME280;72685;47.474;9.416;2023-10-19T11:38:45;93650.91;;;17.78;75.04
11268;BME280;72685;47.474;9.416;2023-10-19T11:41:12;93652.97;;;17.45;74.41
11268;BME280;72685;47.474;9.416;2023-10-19T11:43:39;93647.66;;;17.31;76.55
11268;BME280;72685;47.474;9.416;2023-10-19T11:46:05;93654.38;;;16.84;76.80
11268;BME280;72685;47.474;9.416;2023-10-19T11:48:32;93656.69;;;16.54;77.68
11268;BME280;72685;47.474;9.416;2023-10-19T11:50:58;93654.81;;;16.58;77.67
11268;BME280;72685;47.474;9.416;2023-10-19T11:53:24;93648.63;;;16.51;77.73
11268;BME280;72685;47.474;9.416;2023-10-19T11:55:49;93651.72;;;16.56;78.52
11268;BME280;72685;47.474;9.416;2023-10-19T11:58:15;93643.22;;;16.54;78.79
11268;BME280;72685;47.474;9.416;2023-10-19T12:00:41;93645.91;;;16.43;79.48
11268;BME280;72685;47.474;9.416;2023-10-19T12:03:11;93649.78;;;16.25;78.03
11268;BME280;72685;47.474;9.416;2023-10-19T12:05:37;93647.09;;;16.18;80.54
11268;BME280;72685;47.474;9.416;2023-10-19T12:08:03;93635.53;;;16.28;80.56
11268;BME280;72685;47.474;9.416;2023-10-19T12:10:28;93634.00;;;16.34;79.40
11268;BME280;72685;47.474;9.416;2023-10-19T12:13:06;93645.56;;;16.10;79.38
11268;BME280;72685;47.474;9.416;2023-10-19T12:15:32;93637.47;;;16.20;78.47
11268;BME280;72685;47.474;9.416;2023-10-19T12:17:58;93634.75;;;15.99;79.40
11268;BME280;72685;47.474;9.416;2023-10-19T12:20:25;93635.94;;;16.16;79.94
11268;BME280;72685;47.474;9.416;2023-10-19T12:22:50;93636.31;;;16.21;80.06
11268;BME280;72685;47.474;9.416;2023-10-19T12:25:22;93625.16;;;16.33;78.75
11268;BME280;72685;47.474;9.416;2023-10-19T12:28:00;93616.66;;;16.35;78.58
11268;BME280;72685;47.474;9.416;2023-10-19T12:30:26;93617.84;;;16.27;77.89
11268;BME280;72685;47.474;9.416;2023-10-19T12:32:59;93620.50;;;16.52;80.44
11268;BME280;72685;47.474;9.416;2023-10-19T12:35:25;93620.88;;;16.75;79.96
11268;BME280;72685;47.474;9.416;2023-10-19T12:38:07;93613.84;;;17.02;78.07
11268;BME280;72685;47.474;9.416;2023-10-19T12:40:41;93609.13;;;17.20;75.90
11268;BME280;72685;47.474;9.416;2023-10-19T12:43:06;93605.53;;;17.48;73.91
11268;BME280;72685;47.474;9.416;2023-10-19T12:45:33;93603.34;;;17.91;73.35
11268;BME280;72685;47.474;9.416;2023-10-19T12:48:05;93599.94;;;17.83;72.01
11268;BME280;72685;47.474;9.416;2023-10-19T12:50:32;93599.91;;;17.87;74.07
11268;BME280;72685;47.474;9.416;2023-10-19T12:52:59;93594.59;;;17.76;72.14
11268;BME280;72685;47.474;9.416;2023-10-19T12:55:25;93593.94;;;17.51;73.69
11268;BME280;72685;47.474;9.416;2023-10-19T12:57:55;93587.81;;;17.40;74.61
11268;BME280;72685;47.474;9.416;2023-10-19T13:00:23;93585.13;;;17.40;76.23
11268;BME280;72685;47.474;9.416;2023-10-19T13:02:52;93587.47;;;17.34;75.23
11268;BME280;72685;47.474;9.416;2023-10-19T13:05:32;93581.25;;;17.44;76.82
11268;BME280;72685;47.474;9.416;2023-10-19T13:07:58;93577.38;;;17.45;77.02
11268;BME280;72685;47.474;9.416;2023-10-19T13:10:28;93568.88;;;17.51;77.55
11268;BME280;72685;47.474;9.416;2023-10-19T13:12:55;93563.94;;;17.38;76.28